createdAt,value
2018-12-22T00:01:24.873Z,8.93
2018-12-22T00:03:52.364Z,8.63
2018-12-22T00:06:19.857Z,7.77
2018-12-22T00:08:47.388Z,6.20
2018-12-22T00:11:14.888Z,7.13
2018-12-22T00:13:42.402Z,7.70
2018-12-22T00:16:09.898Z,9.27
2018-12-22T00:18:37.399Z,8.80
2018-12-22T00:21:04.911Z,8.43
2018-12-22T00:23:32.403Z,8.73
2018-12-22T00:25:59.904Z,8.43
2018-12-22T00:28:27.427Z,8.63
2018-12-22T00:30:54.923Z,8.30
2018-12-22T00:33:22.411Z,7.77
2018-12-22T00:35:49.949Z,8.10
2018-12-22T00:38:17.439Z,7.63
2018-12-22T00:40:44.980Z,7.27
2018-12-22T00:43:12.489Z,7.97
2018-12-22T00:45:40.004Z,7.67
2018-12-22T00:48:08.418Z,9.07
2018-12-22T00:50:35.934Z,7.80
2018-12-22T00:53:03.419Z,7.53
2018-12-22T00:55:30.910Z,6.87
2018-12-22T00:57:58.423Z,7.43
2018-12-22T01:00:25.922Z,8.60
2018-12-22T01:02:53.407Z,8.43
2018-12-22T01:05:21.045Z,7.07
2018-12-22T01:07:48.556Z,7.37
2018-12-22T01:10:16.034Z,7.37
2018-12-22T01:12:43.707Z,7.23
2018-12-22T01:15:11.223Z,7.93
2018-12-22T01:17:38.720Z,7.73
2018-12-22T01:20:08.063Z,6.67
2018-12-22T01:22:35.552Z,7.30
2018-12-22T01:25:03.259Z,7.23
2018-12-22T01:27:30.780Z,7.40
2018-12-22T01:29:58.270Z,6.73
2018-12-22T01:32:25.827Z,7.23
2018-12-22T01:34:53.331Z,7.80
2018-12-22T01:37:20.847Z,7.23
2018-12-22T01:39:49.186Z,8.30
2018-12-22T01:42:16.699Z,7.67
2018-12-22T01:44:45.047Z,8.07
2018-12-22T01:47:12.531Z,6.23
2018-12-22T01:49:40.051Z,7.47
2018-12-22T01:52:07.550Z,6.87
2018-12-22T01:54:35.046Z,6.33
2018-12-22T01:57:02.575Z,5.70
2018-12-22T01:59:30.067Z,6.83
2018-12-22T02:01:57.555Z,7.70
2018-12-22T02:04:25.133Z,5.80
2018-12-22T02:06:52.676Z,7.10
2018-12-22T02:09:20.168Z,7.20
2018-12-22T02:11:47.693Z,5.87
2018-12-22T02:14:15.183Z,6.70
2018-12-22T02:16:42.669Z,7.47
2018-12-22T02:19:10.200Z,6.97
2018-12-22T02:21:37.687Z,7.57
2018-12-22T02:24:05.325Z,6.77
2018-12-22T02:26:32.842Z,6.70
2018-12-22T02:29:00.324Z,7.67
2018-12-22T02:31:27.813Z,8.03
2018-12-22T02:33:55.530Z,7.23
2018-12-22T02:36:23.034Z,7.37
2018-12-22T02:38:50.513Z,6.70
2018-12-22T02:41:18.051Z,6.50
2018-12-22T02:43:46.214Z,5.97
2018-12-22T02:46:13.793Z,6.53
2018-12-22T02:48:41.304Z,5.63
2018-12-22T02:51:08.794Z,7.30
2018-12-22T02:53:36.291Z,6.97
2018-12-22T02:56:03.799Z,7.77
2018-12-22T02:58:31.313Z,7.00
2018-12-22T03:00:59.658Z,6.67
2018-12-22T03:03:27.193Z,6.30
2018-12-22T03:05:54.679Z,4.93
2018-12-22T03:08:22.164Z,5.30
2018-12-22T03:10:49.692Z,4.73
2018-12-22T03:13:17.243Z,4.40
2018-12-22T03:15:44.736Z,3.60
2018-12-22T03:18:13.147Z,3.33
2018-12-22T03:20:40.628Z,4.33
2018-12-22T03:23:08.116Z,3.90
2018-12-22T03:25:35.772Z,3.70
2018-12-22T03:28:03.319Z,3.80
2018-12-22T03:30:30.802Z,3.47
2018-12-22T03:32:58.306Z,3.17
2018-12-22T03:35:25.785Z,3.23
2018-12-22T03:37:53.285Z,3.23
2018-12-22T03:40:20.879Z,3.40
2018-12-22T03:42:48.364Z,3.23
2018-12-22T03:45:15.851Z,3.17
2018-12-22T03:47:43.472Z,2.53
2018-12-22T03:50:10.950Z,2.47
2018-12-22T03:52:38.433Z,2.80
2018-12-22T03:55:06.020Z,3.07
2018-12-22T03:57:33.517Z,3.40
2018-12-22T04:00:01.066Z,2.90
2018-12-22T04:02:28.580Z,3.73
2018-12-22T04:04:56.495Z,2.93
2018-12-22T04:07:23.996Z,3.20
2018-12-22T04:09:51.510Z,2.93
2018-12-22T04:12:19.007Z,3.37
2018-12-22T04:14:46.563Z,3.53
2018-12-22T04:17:14.482Z,3.57
2018-12-22T04:19:41.964Z,4.03
2018-12-22T04:22:09.507Z,2.83
2018-12-22T04:24:37.012Z,2.97
2018-12-22T04:27:04.496Z,3.73
2018-12-22T04:29:34.046Z,2.87
2018-12-22T04:32:01.513Z,3.40
2018-12-22T04:34:29.015Z,3.13
2018-12-22T04:36:56.492Z,3.27
2018-12-22T04:39:23.999Z,4.00
2018-12-22T04:41:51.492Z,3.13
2018-12-22T04:44:18.980Z,3.23
2018-12-22T04:46:46.498Z,3.73
2018-12-22T04:49:13.987Z,4.20
2018-12-22T04:51:41.577Z,4.13
2018-12-22T04:54:09.089Z,4.03
2018-12-22T04:56:36.631Z,3.43
2018-12-22T04:59:04.200Z,3.30
2018-12-22T05:01:31.714Z,3.30
2018-12-22T05:04:00.124Z,2.63
2018-12-22T05:06:27.651Z,2.57
2018-12-22T05:08:55.187Z,1.97
2018-12-22T05:11:22.662Z,1.67
2018-12-22T05:13:50.149Z,1.67
2018-12-22T05:16:17.659Z,2.00
2018-12-22T05:18:45.153Z,1.90
2018-12-22T05:21:12.650Z,1.60
2018-12-22T05:23:40.186Z,1.80
2018-12-22T05:26:07.767Z,1.53
2018-12-22T05:28:35.264Z,1.30
2018-12-22T05:31:02.772Z,1.30
2018-12-22T05:33:30.253Z,1.00
2018-12-22T05:35:57.782Z,1.00
2018-12-22T05:38:25.343Z,0.90
2018-12-22T05:40:52.836Z,1.00
2018-12-22T05:43:20.327Z,0.77
2018-12-22T05:45:47.855Z,1.00
2018-12-22T05:48:15.339Z,0.90
2018-12-22T05:50:42.846Z,0.90
2018-12-22T05:53:10.356Z,1.20
2018-12-22T05:55:37.949Z,1.17
2018-12-22T05:58:05.426Z,1.00
2018-12-22T06:00:32.959Z,1.03
2018-12-22T06:03:00.444Z,1.13
2018-12-22T06:05:27.923Z,0.90
2018-12-22T06:07:55.443Z,1.20
2018-12-22T06:10:22.924Z,1.13
2018-12-22T06:12:50.404Z,1.63
2018-12-22T06:15:17.936Z,1.40
2018-12-22T06:17:45.564Z,1.60
2018-12-22T06:20:13.047Z,1.80
2018-12-22T06:22:40.559Z,2.00
2018-12-22T06:25:08.117Z,1.60
2018-12-22T06:27:35.647Z,2.53
2018-12-22T06:30:09.066Z,2.10
2018-12-22T06:32:32.803Z,2.30
2018-12-22T06:35:00.303Z,2.50
2018-12-22T06:37:27.806Z,2.37
2018-12-22T06:39:55.280Z,2.70
2018-12-22T06:42:22.772Z,2.43
2018-12-22T06:44:50.347Z,3.20
2018-12-22T06:47:17.835Z,2.67
2018-12-22T06:49:45.378Z,3.03
2018-12-22T06:52:12.898Z,2.80
2018-12-22T06:54:40.411Z,2.50
2018-12-22T06:57:07.906Z,2.60
2018-12-22T06:59:35.444Z,2.17
2018-12-22T07:02:03.052Z,1.60
2018-12-22T07:04:31.405Z,2.07
2018-12-22T07:06:58.912Z,1.90
2018-12-22T07:09:26.392Z,2.13
2018-12-22T07:11:53.890Z,2.10
2018-12-22T07:14:21.420Z,2.30
2018-12-22T07:16:48.911Z,2.33
2018-12-22T07:19:16.398Z,2.23
2018-12-22T07:21:43.920Z,1.80
2018-12-22T07:24:11.432Z,2.07
2018-12-22T07:26:38.907Z,1.60
2018-12-22T07:29:06.412Z,2.27
2018-12-22T07:31:33.901Z,2.30
2018-12-22T07:34:01.419Z,2.07
2018-12-22T07:36:28.955Z,2.13
2018-12-22T07:38:56.437Z,1.27
2018-12-22T07:41:23.994Z,1.83
2018-12-22T07:43:51.510Z,2.20
2018-12-22T07:46:19.127Z,1.40
2018-12-22T07:48:46.599Z,1.90
2018-12-22T07:51:14.099Z,2.57
2018-12-22T07:53:41.576Z,2.60
2018-12-22T07:56:09.065Z,1.63
2018-12-22T07:58:36.574Z,2.20
2018-12-22T08:01:04.090Z,1.90
2018-12-22T08:03:31.571Z,1.90
2018-12-22T08:05:59.108Z,2.20
2018-12-22T08:08:26.619Z,2.50
2018-12-22T08:10:54.165Z,1.90
2018-12-22T08:13:21.743Z,1.80
2018-12-22T08:15:49.258Z,2.17
2018-12-22T08:18:16.743Z,2.10
2018-12-22T08:20:44.259Z,2.50
2018-12-22T08:23:11.743Z,2.40
2018-12-22T08:25:39.304Z,1.83
2018-12-22T08:28:06.814Z,2.00
2018-12-22T08:30:34.432Z,2.57
2018-12-22T08:33:01.985Z,2.17
2018-12-22T08:35:29.510Z,2.60
2018-12-22T08:37:56.998Z,2.60
2018-12-22T08:40:24.582Z,2.30
2018-12-22T08:42:52.104Z,2.10
2018-12-22T08:45:19.607Z,2.50
2018-12-22T08:47:47.100Z,1.90
2018-12-22T08:50:14.624Z,2.50
2018-12-22T08:52:42.108Z,2.37
2018-12-22T08:55:09.611Z,1.53
2018-12-22T08:57:37.952Z,2.80
2018-12-22T09:00:08.885Z,2.33
2018-12-22T09:02:36.394Z,2.20
2018-12-22T09:05:05.415Z,2.60
2018-12-22T09:07:32.917Z,2.83
2018-12-22T09:10:00.808Z,2.40
2018-12-22T09:12:28.309Z,2.90
2018-12-22T09:14:55.800Z,2.87
2018-12-22T09:17:23.299Z,2.50
2018-12-22T09:19:50.823Z,1.93
2018-12-22T09:22:18.304Z,2.70
2018-12-22T09:24:45.792Z,2.87
2018-12-22T09:27:13.308Z,3.43
2018-12-22T09:29:40.801Z,3.10
2018-12-22T09:32:08.298Z,2.10
2018-12-22T09:34:35.915Z,1.87
2018-12-22T09:37:03.405Z,2.77
2018-12-22T09:39:30.887Z,2.47
2018-12-22T09:41:58.477Z,1.83
2018-12-22T09:44:25.957Z,2.80
2018-12-22T09:46:53.444Z,2.90
2018-12-22T09:49:20.983Z,2.33
2018-12-22T09:51:48.463Z,2.57
2018-12-22T09:54:15.946Z,2.40
2018-12-22T09:56:43.456Z,2.00
2018-12-22T09:59:10.947Z,1.77
2018-12-22T10:01:38.459Z,2.60
2018-12-22T10:04:06.003Z,2.20
2018-12-22T10:06:33.561Z,2.20
2018-12-22T10:09:01.202Z,2.27
2018-12-22T10:11:29.012Z,2.40
2018-12-22T10:13:56.520Z,2.20
2018-12-22T10:16:24.055Z,2.47
2018-12-22T10:18:51.549Z,3.47
2018-12-22T10:21:19.047Z,2.20
2018-12-22T10:23:46.571Z,3.30
2018-12-22T10:26:14.156Z,2.80
2018-12-22T10:28:41.696Z,3.20
2018-12-22T10:31:17.689Z,3.17
2018-12-22T10:33:39.280Z,3.20
2018-12-22T10:36:06.775Z,3.17
2018-12-22T10:38:34.351Z,3.47
2018-12-22T10:41:01.917Z,2.53
2018-12-22T10:43:29.425Z,2.90
2018-12-22T10:45:56.983Z,2.10
2018-12-22T10:48:24.471Z,2.10
2018-12-22T10:50:51.987Z,2.53
2018-12-22T10:53:19.568Z,2.43
2018-12-22T10:55:47.341Z,2.37
2018-12-22T10:58:14.847Z,2.37
2018-12-22T11:00:42.328Z,2.53
2018-12-22T11:03:09.839Z,2.90
2018-12-22T11:05:37.376Z,3.40
2018-12-22T11:08:04.864Z,3.30
2018-12-22T11:10:32.383Z,2.47
2018-12-22T11:12:59.876Z,2.17
2018-12-22T11:15:27.446Z,2.97
2018-12-22T11:17:55.010Z,3.10
2018-12-22T11:20:22.502Z,2.53
2018-12-22T11:22:50.166Z,2.60
2018-12-22T11:25:17.846Z,2.73
2018-12-22T11:27:45.346Z,2.43
2018-12-22T11:30:19.292Z,2.50
2018-12-22T11:32:46.841Z,2.93
2018-12-22T11:35:14.344Z,2.33
2018-12-22T11:37:41.851Z,3.30
2018-12-22T11:40:09.719Z,2.97
2018-12-22T11:42:37.203Z,2.70
2018-12-22T11:45:07.255Z,2.87
2018-12-22T11:47:38.704Z,2.90
2018-12-22T11:50:12.664Z,2.23
2018-12-22T11:52:40.170Z,3.13
2018-12-22T11:55:08.096Z,3.67
2018-12-22T11:57:35.635Z,2.23
2018-12-22T12:00:03.832Z,3.43
2018-12-22T12:02:31.362Z,2.63
2018-12-22T12:04:58.868Z,2.93
2018-12-22T12:07:26.364Z,3.43
2018-12-22T12:09:53.872Z,3.40
2018-12-22T12:12:21.402Z,2.43
2018-12-22T12:14:48.892Z,2.37
2018-12-22T12:17:19.696Z,3.53
2018-12-22T12:19:47.223Z,3.13
2018-12-22T12:22:14.715Z,3.13
2018-12-22T12:24:42.232Z,2.60
2018-12-22T12:27:09.747Z,2.93
2018-12-22T12:29:37.259Z,3.23
2018-12-22T12:32:04.771Z,4.50
2018-12-22T12:34:32.291Z,5.03
2018-12-22T12:36:59.781Z,6.63
2018-12-22T12:39:27.485Z,5.03
2018-12-22T12:41:55.115Z,3.20
2018-12-22T12:44:22.644Z,3.57
2018-12-22T12:46:50.134Z,1.77
2018-12-22T12:49:17.644Z,2.53
2018-12-22T12:51:45.127Z,2.53
2018-12-22T12:54:12.670Z,2.60
2018-12-22T12:56:40.301Z,3.17
2018-12-22T12:59:07.841Z,2.63
2018-12-22T13:01:35.332Z,3.60
2018-12-22T13:04:02.872Z,3.33
2018-12-22T13:06:31.957Z,3.43
2018-12-22T13:08:59.675Z,3.10
2018-12-22T13:11:27.263Z,3.37
2018-12-22T13:13:54.930Z,4.33
2018-12-22T13:16:22.842Z,3.63
2018-12-22T13:18:50.360Z,3.00
2018-12-22T13:21:17.855Z,2.70
2018-12-22T13:23:45.371Z,2.83
2018-12-22T13:26:12.901Z,2.50
2018-12-22T13:28:40.382Z,3.37
2018-12-22T13:31:07.875Z,3.90
2018-12-22T13:33:35.470Z,2.90
2018-12-22T13:36:03.145Z,3.67
2018-12-22T13:38:30.732Z,3.23
2018-12-22T13:40:58.267Z,2.60
2018-12-22T13:43:25.760Z,3.27
2018-12-22T13:45:53.282Z,3.47
2018-12-22T13:48:20.952Z,2.33
2018-12-22T13:50:48.645Z,3.80
2018-12-22T13:53:16.474Z,3.03
2018-12-22T13:55:44.067Z,4.07
2018-12-22T13:58:11.614Z,3.40
2018-12-22T14:00:39.143Z,3.40
2018-12-22T14:03:08.332Z,3.00
2018-12-22T14:05:36.119Z,2.60
2018-12-22T14:08:03.616Z,3.40
2018-12-22T14:10:31.123Z,3.80
2018-12-22T14:12:58.944Z,2.90
2018-12-22T14:15:26.529Z,3.93
2018-12-22T14:18:16.448Z,2.77
2018-12-22T14:20:44.078Z,3.60
2018-12-22T14:23:11.581Z,3.83
2018-12-22T14:25:39.074Z,2.40
2018-12-22T14:28:06.587Z,3.90
2018-12-22T14:30:34.147Z,3.20
2018-12-22T14:33:01.649Z,3.37
2018-12-22T14:35:32.668Z,3.57
2018-12-22T14:38:00.160Z,3.00
2018-12-22T14:40:27.663Z,3.10
2018-12-22T14:42:55.282Z,3.40
2018-12-22T14:45:22.769Z,3.50
2018-12-22T14:47:50.262Z,3.40
2018-12-22T14:50:17.783Z,3.60
2018-12-22T14:52:45.403Z,3.43
2018-12-22T14:55:12.898Z,3.40
2018-12-22T14:57:57.640Z,3.87
2018-12-22T15:00:25.124Z,3.33
2018-12-22T15:02:52.619Z,3.93
2018-12-22T15:05:20.204Z,3.80
2018-12-22T15:07:47.820Z,4.10
2018-12-22T15:10:15.323Z,3.30
2018-12-22T15:12:42.928Z,4.00
2018-12-22T15:15:11.351Z,3.87
2018-12-22T15:17:42.255Z,3.37
2018-12-22T15:20:21.936Z,2.63
2018-12-22T15:22:49.479Z,3.93
2018-12-22T15:25:17.103Z,4.03
2018-12-22T15:27:44.632Z,4.30
2018-12-22T15:30:14.143Z,3.80
2018-12-22T15:32:44.501Z,3.10
2018-12-22T15:35:11.380Z,3.80
2018-12-22T15:37:38.932Z,4.07
2018-12-22T15:40:10.499Z,4.37
2018-12-22T15:42:38.019Z,3.77
2018-12-22T15:45:15.618Z,4.33
2018-12-22T15:47:44.727Z,3.90
2018-12-22T15:50:19.405Z,3.93
2018-12-22T15:52:46.943Z,4.97
2018-12-22T15:55:14.476Z,4.10
2018-12-22T15:57:42.047Z,4.77
2018-12-22T16:00:12.695Z,3.93
2018-12-22T16:02:40.196Z,4.40
2018-12-22T16:05:10.919Z,3.90
2018-12-22T16:07:40.827Z,4.10
2018-12-22T16:10:16.603Z,4.13
2018-12-22T16:12:44.120Z,4.10
2018-12-22T16:15:16.439Z,3.90
2018-12-22T16:17:44.026Z,3.57
2018-12-22T16:20:12.836Z,4.63
2018-12-22T16:22:43.881Z,3.37
2018-12-22T16:25:12.992Z,4.00
2018-12-22T16:27:41.401Z,3.40
2018-12-22T16:30:14.530Z,4.33
2018-12-22T16:32:42.029Z,4.33
2018-12-22T16:35:09.520Z,3.80
2018-12-22T16:37:37.042Z,4.60
2018-12-22T16:40:08.371Z,4.13
2018-12-22T16:42:35.862Z,3.00
2018-12-22T16:45:07.392Z,4.07
2018-12-22T16:47:34.908Z,3.83
2018-12-22T16:50:04.824Z,4.43
2018-12-22T16:52:32.350Z,4.30
2018-12-22T16:54:59.850Z,4.13
2018-12-22T16:57:27.355Z,3.53
2018-12-22T16:59:54.890Z,3.57
2018-12-22T17:02:23.008Z,4.43
2018-12-22T17:04:50.491Z,4.10
2018-12-22T17:07:18.055Z,3.33
2018-12-22T17:09:45.547Z,3.70
2018-12-22T17:12:13.043Z,2.93
2018-12-22T17:14:40.567Z,4.13
2018-12-22T17:17:08.140Z,3.60
2018-12-22T17:19:35.632Z,3.97
2018-12-22T17:22:03.314Z,4.47
2018-12-22T17:24:30.801Z,3.37
2018-12-22T17:26:58.672Z,4.30
2018-12-22T17:29:26.392Z,3.77
2018-12-22T17:31:53.894Z,3.90
2018-12-22T17:34:21.414Z,4.07
2018-12-22T17:36:49.194Z,3.50
2018-12-22T17:39:16.688Z,3.97
2018-12-22T17:41:44.244Z,4.17
2018-12-22T17:44:11.771Z,4.33
2018-12-22T17:46:39.330Z,4.53
2018-12-22T17:49:06.847Z,3.97
2018-12-22T17:51:34.352Z,4.00
2018-12-22T17:54:01.860Z,4.73
2018-12-22T17:56:29.371Z,4.53
2018-12-22T17:58:56.887Z,4.90
2018-12-22T18:01:24.373Z,3.87
2018-12-22T18:03:51.885Z,4.63
2018-12-22T18:06:19.392Z,3.20
2018-12-22T18:08:46.942Z,4.27
2018-12-22T18:11:14.427Z,3.57
2018-12-22T18:13:42.097Z,3.93
2018-12-22T18:16:09.611Z,3.87
2018-12-22T18:18:37.091Z,4.17
2018-12-22T18:21:04.644Z,4.10
2018-12-22T18:23:32.176Z,4.23
2018-12-22T18:25:59.684Z,4.17
2018-12-22T18:28:27.191Z,3.97
2018-12-22T18:30:54.683Z,3.97
2018-12-22T18:33:22.171Z,3.90
2018-12-22T18:35:50.231Z,3.83
2018-12-22T18:38:17.749Z,3.50
2018-12-22T18:40:45.243Z,3.50
2018-12-22T18:43:12.824Z,4.30
2018-12-22T18:45:40.429Z,4.33
2018-12-22T18:48:08.051Z,4.57
2018-12-22T18:50:35.585Z,4.60
2018-12-22T18:53:03.080Z,4.20
2018-12-22T18:55:30.584Z,4.23
2018-12-22T18:57:58.069Z,4.07
2018-12-22T19:00:25.555Z,3.90
2018-12-22T19:02:53.132Z,4.43
2018-12-22T19:05:20.681Z,4.53
2018-12-22T19:07:48.332Z,3.97
2018-12-22T19:10:20.394Z,4.57
2018-12-22T19:12:47.956Z,4.10
2018-12-22T19:15:15.519Z,5.17
2018-12-22T19:17:43.068Z,5.10
2018-12-22T19:20:31.009Z,4.83
2018-12-22T19:22:58.525Z,4.10
2018-12-22T19:25:26.961Z,5.07
2018-12-22T19:27:54.457Z,4.30
2018-12-22T19:30:21.977Z,4.70
2018-12-22T19:32:49.477Z,4.93
2018-12-22T19:35:16.968Z,4.47
2018-12-22T19:37:44.492Z,4.57
2018-12-22T19:40:11.998Z,4.43
2018-12-22T19:42:39.485Z,4.00
2018-12-22T19:45:07.616Z,4.17
2018-12-22T19:47:35.115Z,4.63
2018-12-22T19:50:03.100Z,6.47
2018-12-22T19:52:30.612Z,5.93
2018-12-22T19:54:58.107Z,5.03
2018-12-22T19:57:25.705Z,4.87
2018-12-22T19:59:53.289Z,5.27
2018-12-22T20:02:20.887Z,6.40
2018-12-22T20:04:48.387Z,5.53
2018-12-22T20:07:15.897Z,4.80
2018-12-22T20:09:43.379Z,5.47
2018-12-22T20:12:10.867Z,4.93
2018-12-22T20:14:38.383Z,6.03
2018-12-22T20:17:05.872Z,5.97
2018-12-22T20:19:33.359Z,5.00
2018-12-22T20:22:01.480Z,5.53
2018-12-22T20:24:28.996Z,4.80
2018-12-22T20:26:56.531Z,6.03
2018-12-22T20:29:24.111Z,6.27
2018-12-22T20:31:51.601Z,5.03
2018-12-22T20:34:19.193Z,5.17
2018-12-22T20:36:46.703Z,5.57
2018-12-22T20:39:14.191Z,5.93
2018-12-22T20:41:41.683Z,5.97
2018-12-22T20:44:09.196Z,5.30
2018-12-22T20:46:36.702Z,5.73
2018-12-22T20:49:04.188Z,5.63
2018-12-22T20:51:31.700Z,5.70
2018-12-22T20:53:59.248Z,5.97
2018-12-22T20:56:26.731Z,5.87
2018-12-22T20:58:54.251Z,5.47
2018-12-22T21:01:21.778Z,7.53
2018-12-22T21:03:49.296Z,7.60
2018-12-22T21:06:16.863Z,6.50
2018-12-22T21:08:45.303Z,5.63
2018-12-22T21:11:12.810Z,5.57
2018-12-22T21:13:40.315Z,6.13
2018-12-22T21:16:07.802Z,5.70
2018-12-22T21:18:35.362Z,6.20
2018-12-22T21:21:02.924Z,6.20
2018-12-22T21:23:30.402Z,6.27
2018-12-22T21:25:57.899Z,6.10
2018-12-22T21:28:25.427Z,5.30
2018-12-22T21:30:52.955Z,5.77
2018-12-22T21:33:20.446Z,5.57
2018-12-22T21:35:53.106Z,6.90
2018-12-22T21:38:17.516Z,6.70
2018-12-22T21:40:45.010Z,6.60
2018-12-22T21:43:12.528Z,6.57
2018-12-22T21:45:40.020Z,6.40
2018-12-22T21:48:07.580Z,6.03
2018-12-22T21:50:35.132Z,5.87
2018-12-22T21:53:02.947Z,7.50
2018-12-22T21:55:30.536Z,6.83
2018-12-22T21:57:58.037Z,5.27
2018-12-22T22:00:25.523Z,6.00
2018-12-22T22:02:53.010Z,6.33
2018-12-22T22:05:20.516Z,6.60
2018-12-22T22:07:48.373Z,4.87
2018-12-22T22:10:15.887Z,6.63
2018-12-22T22:12:43.400Z,6.50
2018-12-22T22:15:10.883Z,8.07
2018-12-22T22:17:38.414Z,7.27
2018-12-22T22:20:06.204Z,6.93
2018-12-22T22:22:33.683Z,7.33
2018-12-22T22:25:01.272Z,7.77
2018-12-22T22:27:28.783Z,6.90
2018-12-22T22:29:56.271Z,7.10
2018-12-22T22:32:23.759Z,7.50
2018-12-22T22:34:51.280Z,7.10
2018-12-22T22:37:18.775Z,6.67
2018-12-22T22:39:46.313Z,7.00
2018-12-22T22:42:14.068Z,7.30
2018-12-22T22:44:41.665Z,6.63
2018-12-22T22:47:09.154Z,6.80
2018-12-22T22:49:36.663Z,5.47
2018-12-22T22:52:04.146Z,6.30
2018-12-22T22:54:31.719Z,7.53
2018-12-22T22:56:59.493Z,8.03
2018-12-22T22:59:27.418Z,9.67
2018-12-22T23:01:54.956Z,11.73
2018-12-22T23:04:22.637Z,9.20
2018-12-22T23:06:50.355Z,8.53
2018-12-22T23:09:17.878Z,7.10
2018-12-22T23:11:45.479Z,6.20
2018-12-22T23:14:12.966Z,7.27
2018-12-22T23:16:40.673Z,7.33
2018-12-22T23:19:08.242Z,8.03
2018-12-22T23:21:35.725Z,7.73
2018-12-22T23:24:03.210Z,6.93
2018-12-22T23:26:30.779Z,7.63
2018-12-22T23:28:58.256Z,8.07
2018-12-22T23:31:25.752Z,5.17
2018-12-22T23:33:53.366Z,6.87
2018-12-22T23:36:20.859Z,7.20
2018-12-22T23:38:48.343Z,8.07
2018-12-22T23:41:15.851Z,7.43
2018-12-22T23:43:43.413Z,7.57
2018-12-22T23:46:11.011Z,7.00
2018-12-22T23:48:38.530Z,7.63
2018-12-22T23:51:06.015Z,7.73
2018-12-22T23:53:33.504Z,7.70
2018-12-22T23:56:01.015Z,7.57
2018-12-22T23:58:28.504Z,7.40
